createdAt,value
2022-08-09T00:01:54.893Z,4.10
2022-08-09T00:04:34.314Z,3.95
2022-08-09T00:07:10.741Z,3.70
2022-08-09T00:09:40.911Z,3.20
2022-08-09T00:12:22.513Z,3.83
2022-08-09T00:14:55.895Z,3.70
2022-08-09T00:18:07.585Z,3.50
2022-08-09T00:20:17.142Z,3.75
2022-08-09T00:22:49.843Z,3.50
2022-08-09T00:25:23.370Z,4.10
2022-08-09T00:28:04.155Z,3.58
2022-08-09T00:30:34.225Z,3.70
2022-08-09T00:33:04.096Z,4.20
2022-08-09T00:35:43.011Z,3.70
2022-08-09T00:38:16.159Z,3.47
2022-08-09T00:40:53.271Z,3.65
2022-08-09T00:44:14.580Z,3.50
2022-08-09T00:46:14.553Z,4.30
2022-08-09T00:49:04.013Z,4.05
2022-08-09T00:51:42.572Z,3.90
2022-08-09T00:54:19.368Z,3.83
2022-08-09T00:56:49.524Z,3.80
2022-08-09T00:59:41.693Z,3.67
2022-08-09T01:02:10.202Z,3.90
2022-08-09T01:04:51.020Z,4.50
2022-08-09T01:07:37.995Z,3.92
2022-08-09T01:10:23.359Z,3.55
2022-08-09T01:13:02.621Z,3.90
2022-08-09T01:15:40.814Z,4.00
2022-08-09T01:18:14.437Z,3.93
2022-08-09T01:20:49.756Z,4.40
2022-08-09T01:24:02.043Z,3.90
2022-08-09T01:26:41.705Z,4.20
2022-08-09T01:29:13.200Z,4.00
2022-08-09T01:32:31.187Z,3.60
2022-08-09T01:34:37.707Z,4.20
2022-08-09T01:37:09.302Z,3.65
2022-08-09T01:39:40.010Z,3.40
2022-08-09T01:42:12.546Z,3.80
2022-08-09T01:44:43.076Z,4.18
2022-08-09T01:47:13.413Z,3.88
2022-08-09T01:49:54.514Z,3.90
2022-08-09T01:52:25.287Z,4.07
2022-08-09T01:54:59.305Z,4.20
2022-08-09T01:57:40.097Z,3.97
2022-08-09T02:00:34.675Z,4.17
2022-08-09T02:03:11.370Z,3.70
2022-08-09T02:06:03.642Z,3.70
2022-08-09T02:08:41.255Z,3.90
2022-08-09T02:11:24.736Z,4.00
2022-08-09T02:14:25.660Z,3.27
2022-08-09T02:17:14.773Z,3.80
2022-08-09T02:19:47.628Z,4.18
2022-08-09T02:22:38.079Z,3.78
2022-08-09T02:25:17.036Z,3.70
2022-08-09T02:28:00.601Z,4.20
2022-08-09T02:30:41.522Z,4.30
2022-08-09T02:33:14.235Z,4.30
2022-08-09T02:36:02.838Z,3.92
2022-08-09T02:38:38.033Z,4.25
2022-08-09T02:41:12.408Z,3.53
2022-08-09T02:43:54.643Z,3.80
2022-08-09T02:46:29.835Z,4.13
2022-08-09T02:49:02.829Z,3.93
2022-08-09T02:51:40.245Z,4.05
2022-08-09T02:54:13.974Z,3.70
2022-08-09T02:56:51.287Z,4.10
2022-08-09T02:59:36.703Z,4.30
2022-08-09T03:02:17.069Z,4.10
2022-08-09T03:04:50.774Z,4.10
2022-08-09T03:07:21.482Z,4.10
2022-08-09T03:09:54.410Z,4.18
2022-08-09T03:12:27.510Z,3.80
2022-08-09T03:14:58.638Z,4.30
2022-08-09T03:17:31.645Z,3.97
2022-08-09T03:20:11.059Z,4.55
2022-08-09T03:22:44.705Z,3.60
2022-08-09T03:25:26.775Z,4.20
2022-08-09T03:28:26.206Z,4.18
2022-08-09T03:30:57.137Z,4.38
2022-08-09T03:33:54.176Z,4.95
2022-08-09T03:36:19.419Z,4.40
2022-08-09T03:38:50.796Z,4.28
2022-08-09T03:41:20.513Z,4.00
2022-08-09T03:44:07.784Z,4.20
2022-08-09T03:46:39.105Z,4.50
2022-08-09T03:49:11.789Z,4.90
2022-08-09T03:51:58.143Z,4.50
2022-08-09T03:54:34.515Z,4.90
2022-08-09T03:57:17.916Z,5.15
2022-08-09T03:59:54.265Z,4.70
2022-08-09T04:02:28.347Z,4.68
2022-08-09T04:05:06.433Z,4.53
2022-08-09T04:07:53.294Z,4.70
2022-08-09T04:10:29.400Z,4.60
2022-08-09T04:13:04.040Z,4.63
2022-08-09T04:15:52.502Z,4.70
2022-08-09T04:18:24.982Z,5.10
2022-08-09T04:20:57.640Z,4.70
2022-08-09T04:23:27.472Z,4.85
2022-08-09T04:25:58.013Z,4.63
2022-08-09T04:28:34.241Z,4.97
2022-08-09T04:31:08.120Z,4.90
2022-08-09T04:33:51.981Z,4.72
2022-08-09T04:36:28.091Z,4.60
2022-08-09T04:39:00.032Z,4.17
2022-08-09T04:41:33.240Z,4.50
2022-08-09T04:44:06.076Z,4.70
2022-08-09T04:46:58.314Z,4.00
2022-08-09T04:49:55.070Z,4.40
2022-08-09T04:52:27.546Z,3.88
2022-08-09T04:54:57.999Z,4.47
2022-08-09T04:57:59.070Z,5.40
2022-08-09T05:00:18.629Z,4.57
2022-08-09T05:02:48.616Z,5.20
2022-08-09T05:05:31.810Z,5.40
2022-08-09T05:08:15.582Z,4.50
2022-08-09T05:10:47.599Z,4.82
2022-08-09T05:13:17.311Z,5.00
2022-08-09T05:15:52.071Z,4.90
2022-08-09T05:18:39.912Z,4.63
2022-08-09T05:21:19.934Z,5.50
2022-08-09T05:24:01.008Z,5.70
2022-08-09T05:26:37.091Z,5.80
2022-08-09T05:29:21.864Z,5.32
2022-08-09T05:31:58.426Z,6.20
2022-08-09T05:34:31.142Z,5.72
2022-08-09T05:37:06.182Z,5.50
2022-08-09T05:39:43.602Z,5.05
2022-08-09T05:42:17.409Z,5.30
2022-08-09T05:44:51.724Z,5.90
2022-08-09T05:47:22.861Z,7.10
2022-08-09T05:50:30.349Z,6.20
2022-08-09T05:52:43.323Z,5.85
2022-08-09T05:55:20.377Z,6.13
2022-08-09T05:57:56.682Z,7.30
2022-08-09T06:00:29.071Z,6.40
2022-08-09T06:02:59.499Z,7.13
2022-08-09T06:05:31.371Z,6.70
2022-08-09T06:08:24.617Z,6.85
2022-08-09T06:10:59.148Z,6.70
2022-08-09T06:13:33.944Z,7.63
2022-08-09T06:16:04.840Z,7.00
2022-08-09T06:18:35.428Z,7.03
2022-08-09T06:21:08.093Z,7.40
2022-08-09T06:23:57.962Z,6.88
2022-08-09T06:26:30.292Z,8.20
2022-08-09T06:29:04.955Z,7.43
2022-08-09T06:31:40.315Z,6.90
2022-08-09T06:34:26.278Z,6.83
2022-08-09T06:37:00.146Z,6.75
2022-08-09T06:39:49.086Z,7.43
2022-08-09T06:42:24.955Z,7.97
2022-08-09T06:44:58.965Z,7.50
2022-08-09T06:47:39.815Z,7.53
2022-08-09T06:50:16.688Z,7.32
2022-08-09T06:52:49.119Z,6.80
2022-08-09T06:55:22.435Z,6.23
2022-08-09T06:58:03.159Z,6.60
2022-08-09T07:00:51.955Z,6.70
2022-08-09T07:03:27.605Z,6.80
2022-08-09T07:06:03.771Z,6.63
2022-08-09T07:08:37.355Z,7.13
2022-08-09T07:11:12.598Z,6.40
2022-08-09T07:14:04.880Z,6.25
2022-08-09T07:16:43.303Z,6.88
2022-08-09T07:19:18.492Z,5.70
2022-08-09T07:21:57.638Z,6.00
2022-08-09T07:24:32.128Z,6.82
2022-08-09T07:27:26.718Z,6.30
2022-08-09T07:30:03.809Z,6.85
2022-08-09T07:32:35.437Z,6.30
2022-08-09T07:35:08.146Z,6.82
2022-08-09T07:37:44.068Z,6.55
2022-08-09T07:40:17.693Z,6.00
2022-08-09T07:42:55.955Z,6.32
2022-08-09T07:45:39.787Z,6.30
2022-08-09T07:48:25.229Z,6.60
2022-08-09T07:51:10.372Z,5.90
2022-08-09T07:54:06.183Z,5.70
2022-08-09T07:56:44.961Z,5.93
2022-08-09T07:59:34.267Z,5.70
2022-08-09T08:02:19.096Z,4.93
2022-08-09T08:04:53.510Z,5.50
2022-08-09T08:08:43.469Z,5.28
2022-08-09T08:10:13.523Z,5.70
2022-08-09T08:12:45.616Z,5.10
2022-08-09T08:15:24.315Z,5.32
2022-08-09T08:17:58.670Z,5.25
2022-08-09T08:20:32.280Z,4.97
2022-08-09T08:23:16.086Z,5.07
2022-08-09T08:25:50.374Z,5.10
2022-08-09T08:28:35.896Z,4.80
2022-08-09T08:31:13.871Z,4.50
2022-08-09T08:33:53.138Z,4.45
2022-08-09T08:36:29.494Z,4.40
2022-08-09T08:39:00.768Z,5.00
2022-08-09T08:41:51.169Z,4.50
2022-08-09T08:44:27.505Z,3.90
2022-08-09T08:47:05.013Z,4.43
2022-08-09T08:49:48.520Z,4.70
2022-08-09T08:55:19.067Z,4.35
2022-08-09T08:57:56.141Z,5.10
2022-08-09T09:00:30.022Z,4.50
2022-08-09T09:03:08.720Z,4.88
2022-08-09T09:05:58.437Z,4.30
2022-08-09T09:08:37.611Z,3.80
2022-08-09T09:11:13.613Z,4.63
2022-08-09T09:13:56.282Z,5.30
2022-08-09T09:16:30.693Z,4.40
2022-08-09T09:19:22.740Z,4.90
2022-08-09T09:22:07.695Z,3.97
2022-08-09T09:24:43.403Z,4.17
2022-08-09T09:27:22.119Z,4.60
2022-08-09T09:30:38.266Z,5.00
2022-08-09T09:33:15.912Z,4.68
2022-08-09T09:36:01.703Z,4.30
2022-08-09T09:38:49.245Z,4.40
2022-08-09T09:41:48.740Z,4.13
2022-08-09T09:44:31.635Z,4.10
2022-08-09T09:47:10.113Z,4.47
2022-08-09T09:50:07.195Z,4.20
2022-08-09T09:52:57.373Z,3.70
2022-08-09T09:55:32.944Z,3.95
2022-08-09T09:58:16.469Z,4.05
2022-08-09T10:00:54.059Z,4.28
2022-08-09T10:03:58.065Z,4.28
2022-08-09T10:06:32.134Z,3.97
2022-08-09T10:09:21.544Z,4.18
2022-08-09T10:12:12.506Z,3.95
2022-08-09T10:14:51.303Z,4.15
2022-08-09T10:17:50.307Z,3.97
2022-08-09T10:20:33.083Z,3.70
2022-08-09T10:23:20.384Z,4.38
2022-08-09T10:26:06.881Z,3.90
2022-08-09T10:28:49.075Z,4.10
2022-08-09T10:32:35.728Z,4.20
2022-08-09T10:34:33.474Z,3.80
2022-08-09T10:37:04.484Z,3.50
2022-08-09T10:39:40.542Z,3.97
2022-08-09T10:42:18.985Z,4.10
2022-08-09T10:44:57.493Z,4.10
2022-08-09T10:48:26.218Z,3.93
2022-08-09T10:50:51.920Z,4.25
2022-08-09T10:53:46.569Z,4.30
2022-08-09T10:56:23.323Z,3.95
2022-08-09T10:58:54.020Z,4.00
2022-08-09T11:03:13.708Z,4.43
2022-08-09T11:04:35.368Z,4.15
2022-08-09T11:07:55.063Z,4.40
2022-08-09T11:10:54.792Z,3.70
2022-08-09T11:13:50.743Z,4.53
2022-08-09T11:16:50.969Z,4.00
2022-08-09T11:20:19.785Z,3.60
2022-08-09T11:23:02.852Z,4.40
2022-08-09T11:25:47.200Z,4.20
2022-08-09T11:28:56.186Z,3.83
2022-08-09T11:31:52.872Z,4.00
2022-08-09T11:34:42.842Z,4.10
2022-08-09T11:37:18.222Z,4.00
2022-08-09T11:40:04.233Z,4.20
2022-08-09T11:42:46.952Z,3.95
2022-08-09T11:45:42.220Z,3.60
2022-08-09T11:48:26.579Z,3.50
2022-08-09T11:53:00.786Z,3.80
2022-08-09T11:54:28.983Z,3.72
2022-08-09T11:57:47.649Z,3.60
2022-08-09T12:00:27.837Z,3.80
2022-08-09T12:02:59.179Z,3.45
2022-08-09T12:05:39.882Z,3.43
2022-08-09T12:08:21.679Z,4.07
2022-08-09T12:10:53.841Z,3.60
2022-08-09T12:14:07.397Z,3.73
2022-08-09T12:16:37.813Z,3.50
2022-08-09T12:19:12.126Z,3.70
2022-08-09T12:21:50.243Z,3.60
2022-08-09T12:24:24.927Z,3.50
2022-08-09T12:29:10.174Z,3.72
2022-08-09T12:30:02.116Z,3.53
2022-08-09T12:32:48.740Z,3.20
2022-08-09T12:35:21.689Z,4.00
2022-08-09T12:37:54.463Z,3.60
2022-08-09T12:40:27.271Z,3.10
2022-08-09T12:42:57.704Z,3.40
2022-08-09T12:45:34.899Z,3.60
2022-08-09T12:48:19.898Z,3.90
2022-08-09T12:50:58.437Z,3.63
2022-08-09T12:53:38.672Z,3.30
2022-08-09T12:56:39.259Z,3.35
2022-08-09T12:59:10.959Z,3.80
2022-08-09T13:01:48.730Z,4.00
2022-08-09T13:04:36.894Z,3.55
2022-08-09T13:07:16.581Z,3.70
2022-08-09T13:09:55.412Z,4.20
2022-08-09T13:12:30.758Z,3.70
2022-08-09T13:15:08.044Z,3.70
2022-08-09T13:18:02.655Z,3.60
2022-08-09T13:22:33.035Z,3.70
2022-08-09T13:24:44.697Z,3.50
2022-08-09T13:26:42.209Z,4.18
2022-08-09T13:29:14.108Z,3.60
2022-08-09T13:32:16.212Z,3.70
2022-08-09T13:34:52.083Z,3.60
2022-08-09T13:37:50.427Z,3.50
2022-08-09T13:41:50.813Z,3.47
2022-08-09T13:43:09.565Z,3.10
2022-08-09T13:46:42.556Z,3.17
2022-08-09T13:48:30.024Z,3.45
2022-08-09T13:50:59.852Z,3.30
2022-08-09T13:53:41.444Z,3.07
2022-08-09T13:56:14.199Z,3.20
2022-08-09T13:58:46.646Z,4.07
2022-08-09T14:01:56.253Z,3.58
2022-08-09T14:04:11.502Z,3.17
2022-08-09T14:06:43.855Z,3.33
2022-08-09T14:09:16.393Z,3.40
2022-08-09T14:11:47.237Z,3.80
2022-08-09T14:14:26.819Z,3.35
2022-08-09T14:16:58.614Z,3.05
2022-08-09T14:19:33.363Z,3.60
2022-08-09T14:22:03.707Z,3.35
2022-08-09T14:24:33.625Z,3.13
2022-08-09T14:27:03.579Z,3.10
2022-08-09T14:30:34.593Z,3.03
2022-08-09T14:32:43.028Z,3.60
2022-08-09T14:35:14.240Z,3.10
2022-08-09T14:38:02.433Z,3.60
2022-08-09T14:41:00.606Z,3.60
2022-08-09T14:43:23.571Z,3.10
2022-08-09T14:46:51.265Z,3.30
2022-08-09T14:48:45.587Z,3.03
2022-08-09T14:51:15.257Z,3.28
2022-08-09T14:53:48.684Z,3.33
2022-08-09T14:56:22.491Z,3.65
2022-08-09T14:58:57.862Z,2.97
2022-08-09T15:01:30.327Z,3.30
2022-08-09T15:04:00.328Z,3.40
2022-08-09T15:06:31.317Z,3.50
2022-08-09T15:09:01.357Z,3.50
2022-08-09T15:11:31.069Z,3.38
2022-08-09T15:14:04.814Z,3.20
2022-08-09T15:16:45.941Z,3.28
2022-08-09T15:19:19.966Z,3.50
2022-08-09T15:21:55.328Z,2.70
2022-08-09T15:24:29.749Z,3.20
2022-08-09T15:26:59.837Z,3.20
2022-08-09T15:30:58.561Z,3.17
2022-08-09T15:32:29.059Z,3.60
2022-08-09T15:35:01.049Z,3.22
2022-08-09T15:37:56.773Z,3.58
2022-08-09T15:40:32.297Z,3.00
2022-08-09T15:43:03.593Z,3.20
2022-08-09T15:46:02.844Z,2.78
2022-08-09T15:48:29.484Z,3.10
2022-08-09T15:51:02.225Z,3.35
2022-08-09T15:54:06.894Z,3.00
2022-08-09T15:56:41.505Z,3.10
2022-08-09T15:59:14.335Z,2.83
2022-08-09T16:01:44.042Z,3.20
2022-08-09T16:04:16.415Z,2.70
2022-08-09T16:06:52.785Z,3.45
2022-08-09T16:09:32.492Z,3.00
2022-08-09T16:12:13.672Z,3.10
2022-08-09T16:14:45.881Z,2.85
2022-08-09T16:17:17.005Z,2.80
2022-08-09T16:20:04.166Z,3.15
2022-08-09T16:22:42.055Z,2.90
2022-08-09T16:25:14.359Z,3.08
2022-08-09T16:27:47.931Z,2.72
2022-08-09T16:30:28.492Z,2.70
2022-08-09T16:33:11.608Z,3.03
2022-08-09T16:35:57.078Z,2.90
2022-08-09T16:38:29.851Z,2.87
2022-08-09T16:41:04.039Z,3.13
2022-08-09T16:43:34.236Z,2.70
2022-08-09T16:46:10.848Z,3.20
2022-08-09T16:48:54.052Z,3.30
2022-08-09T16:51:35.258Z,3.08
2022-08-09T16:54:25.950Z,2.93
2022-08-09T16:56:54.927Z,3.10
2022-08-09T16:59:26.217Z,2.70
2022-08-09T17:02:04.468Z,2.75
2022-08-09T17:04:35.262Z,2.90
2022-08-09T17:08:45.395Z,2.88
2022-08-09T17:10:04.040Z,3.20
2022-08-09T17:12:34.081Z,2.87
2022-08-09T17:15:17.954Z,3.10
2022-08-09T17:18:00.458Z,3.15
2022-08-09T17:20:35.235Z,2.93
2022-08-09T17:23:14.786Z,3.10
2022-08-09T17:25:44.988Z,2.90
2022-08-09T17:28:22.644Z,3.10
2022-08-09T17:30:53.107Z,2.88
2022-08-09T17:33:23.377Z,2.70
2022-08-09T17:35:53.620Z,3.00
2022-08-09T17:38:34.109Z,3.00
2022-08-09T17:41:08.479Z,2.88
2022-08-09T17:43:38.530Z,2.78
2022-08-09T17:46:10.124Z,3.00
2022-08-09T17:48:52.308Z,2.63
2022-08-09T17:51:23.204Z,2.90
2022-08-09T17:53:56.423Z,2.53
2022-08-09T17:56:29.251Z,3.00
2022-08-09T17:59:09.415Z,2.70
2022-08-09T18:02:06.573Z,2.80
2022-08-09T18:04:31.737Z,2.90
2022-08-09T18:07:04.610Z,2.60
2022-08-09T18:09:41.588Z,2.80
2022-08-09T18:12:15.343Z,2.55
2022-08-09T18:14:53.692Z,2.63
2022-08-09T18:17:27.287Z,2.88
2022-08-09T18:20:55.073Z,2.80
2022-08-09T18:23:07.412Z,2.10
2022-08-09T18:25:50.869Z,2.50
2022-08-09T18:30:35.239Z,2.50
2022-08-09T18:31:15.401Z,2.60
2022-08-09T18:33:54.932Z,2.70
2022-08-09T18:36:25.559Z,2.67
2022-08-09T18:39:02.315Z,2.80
2022-08-09T18:41:36.967Z,2.55
2022-08-09T18:44:13.622Z,2.40
2022-08-09T18:46:47.335Z,2.25
2022-08-09T18:49:23.849Z,2.50
2022-08-09T18:51:55.106Z,2.70
2022-08-09T18:54:29.583Z,2.60
2022-08-09T18:57:05.461Z,2.58
2022-08-09T18:59:48.463Z,2.58
2022-08-09T19:02:19.683Z,2.73
2022-08-09T19:05:03.894Z,2.70
2022-08-09T19:07:39.782Z,2.50
2022-08-09T19:10:14.096Z,2.53
2022-08-09T19:13:00.361Z,2.50
2022-08-09T19:15:40.087Z,2.70
2022-08-09T19:18:17.058Z,2.90
2022-08-09T19:20:52.247Z,2.53
2022-08-09T19:24:33.463Z,2.15
2022-08-09T19:26:18.291Z,2.45
2022-08-09T19:28:54.762Z,2.72
2022-08-09T19:31:27.150Z,2.40
2022-08-09T19:33:56.887Z,2.35
2022-08-09T19:36:30.896Z,2.60
2022-08-09T19:39:05.483Z,2.67
2022-08-09T19:41:35.898Z,3.00
2022-08-09T19:44:08.366Z,2.83
2022-08-09T19:46:50.663Z,3.40
2022-08-09T19:50:07.060Z,3.10
2022-08-09T19:52:13.266Z,2.78
2022-08-09T19:54:43.973Z,2.80
2022-08-09T19:57:13.739Z,2.58
2022-08-09T20:00:05.417Z,2.60
2022-08-09T20:04:12.666Z,2.78
2022-08-09T20:05:29.693Z,2.60
2022-08-09T20:08:16.002Z,2.50
2022-08-09T20:10:56.040Z,2.50
2022-08-09T20:13:27.307Z,2.60
2022-08-09T20:16:33.876Z,2.75
2022-08-09T20:19:03.702Z,2.90
2022-08-09T20:21:55.260Z,2.45
2022-08-09T20:24:31.957Z,2.70
2022-08-09T20:27:07.898Z,2.40
2022-08-09T20:29:39.597Z,2.70
2022-08-09T20:32:29.220Z,2.30
2022-08-09T20:35:02.126Z,2.93
2022-08-09T20:38:19.766Z,2.90
2022-08-09T20:40:26.416Z,2.92
2022-08-09T20:42:59.779Z,2.30
2022-08-09T20:46:00.123Z,2.80
2022-08-09T20:48:22.814Z,2.30
2022-08-09T20:50:58.140Z,2.50
2022-08-09T20:53:36.564Z,2.78
2022-08-09T20:56:21.055Z,2.20
2022-08-09T20:58:54.515Z,3.10
2022-08-09T21:01:34.696Z,2.50
2022-08-09T21:05:54.686Z,2.50
2022-08-09T21:07:13.910Z,2.70
2022-08-09T21:09:56.617Z,2.20
2022-08-09T21:15:23.844Z,2.47
2022-08-09T21:18:11.713Z,2.40
2022-08-09T21:20:56.560Z,2.55
2022-08-09T21:23:47.544Z,2.80
2022-08-09T21:26:16.081Z,2.80
2022-08-09T21:28:55.818Z,2.50
2022-08-09T21:31:49.453Z,2.42
2022-08-09T21:34:28.640Z,2.50
2022-08-09T21:37:01.837Z,2.90
2022-08-09T21:39:42.012Z,2.30
2022-08-09T21:42:12.313Z,2.40
2022-08-09T21:44:42.906Z,2.85
2022-08-09T21:47:18.171Z,2.65
2022-08-09T21:49:49.579Z,2.65
2022-08-09T21:52:23.974Z,2.50
2022-08-09T21:55:03.801Z,2.75
2022-08-09T21:57:38.788Z,3.05
2022-08-09T22:00:32.378Z,2.60
2022-08-09T22:03:04.817Z,2.92
2022-08-09T22:05:41.609Z,2.70
2022-08-09T22:08:16.438Z,2.65
2022-08-09T22:11:50.291Z,2.83
2022-08-09T22:13:37.166Z,3.30
2022-08-09T22:16:09.288Z,2.90
2022-08-09T22:18:52.848Z,2.70
2022-08-09T22:21:27.347Z,3.20
2022-08-09T22:24:24.284Z,2.90
2022-08-09T22:26:55.112Z,3.25
2022-08-09T22:29:38.405Z,3.20
2022-08-09T22:32:29.752Z,3.05
2022-08-09T22:35:06.259Z,3.05
2022-08-09T22:37:40.289Z,3.20
2022-08-09T22:40:20.262Z,3.20
2022-08-09T22:42:50.213Z,3.13
2022-08-09T22:48:16.314Z,3.50
2022-08-09T22:48:19.124Z,3.50
2022-08-09T22:50:59.432Z,3.28
2022-08-09T22:53:33.285Z,3.30
2022-08-09T22:56:33.430Z,3.38
2022-08-09T22:59:05.964Z,3.80
2022-08-09T23:01:53.667Z,3.75
2022-08-09T23:04:25.557Z,3.63
2022-08-09T23:07:11.208Z,3.35
2022-08-09T23:09:43.794Z,3.63
2022-08-09T23:12:16.078Z,3.75
2022-08-09T23:14:45.780Z,3.72
2022-08-09T23:17:16.049Z,4.18
2022-08-09T23:20:06.522Z,3.80
2022-08-09T23:22:35.840Z,3.70
2022-08-09T23:25:05.976Z,4.30
2022-08-09T23:27:59.661Z,3.88
2022-08-09T23:30:27.942Z,4.25
2022-08-09T23:32:57.606Z,4.00
2022-08-09T23:35:27.494Z,3.90
2022-08-09T23:37:57.193Z,4.05
2022-08-09T23:40:26.886Z,3.93
2022-08-09T23:42:59.241Z,3.65
2022-08-09T23:45:37.531Z,3.70
2022-08-09T23:48:09.198Z,3.83
2022-08-09T23:50:39.087Z,4.30
2022-08-09T23:53:10.408Z,3.80
2022-08-09T23:55:49.566Z,4.13
2022-08-09T23:58:26.090Z,4.18
